Oakland, CA (94602)

1:47 AM PST on February 13, 2016 (GMT -0800)
Lincoln Heights | | Change Station
CLOSE
Current Station
Personal Weather Station
Location: Oakland, CA
Elevation: 377 ft
Nearby Weather Stations

Elev 377 ft 37.80 °N, 122.20 °W | Updated 1 second ago

Mostly Cloudy
Mostly Cloudy
54.5 °F
Feels Like 54.5 °F
N
0.0
Wind Variable Wind from South
Gusts 0.0 mph

Today
High -- | Low -- °F
--% Chance of Precip.
Yesterday
High -- | Low -- °F
Precip. -- in
Pressure 30.22 in
Visibility 8.0 miles
Clouds Few 800 ft
Scattered Clouds 1400 ft
Overcast 2000 ft
Dew Point 54 °F
Humidity 97%
Rainfall 0.00 in
Snow Depth Not available.
7:01 AM 5:45 PM
Waxing Crescent, 29% visible
METAR KOAK 130853Z 29005KT 8SM FEW008 SCT014 OVC020 13/11 A3022 RMK AO2 SLP234 T01280111 51004 $
Pressure 30.22 in
Visibility 8.0 miles
Clouds Few 800 ft
Scattered Clouds 1400 ft
Overcast 2000 ft
Dew Point 54 °F
Humidity 97%
Rainfall 0.00 in
Snow Depth Not available.
7:01 AM 5:45 PM
Waxing Crescent, 29% visible
METAR KOAK 130853Z 29005KT 8SM FEW008 SCT014 OVC020 13/11 A3022 RMK AO2 SLP234 T01280111 51004 $

10-Day Weather Forecast

Almanac

Astronomy

Feb. 13, 2016 Rise Set
Actual Time
Civil Twilight
Nautical Twilight
Astronomical Twilight
Moon
Length of Visible Light
Length of Day
Tomorrow will be .
, % of the Moon is Illuminated

Today's Extremes

State Highs State Lows

Community

WunderPhotos

Upload Photos

1,892,536 photos uploaded!

WunderBlog® & News

Nearby

Air Quality

  Air Quality AQ Index Pollutant
Not available.

Snow Depth

Station Depth Elevation

Earthquake Activity

City Distance Mag. Time & Date
Minimum magnitude displayed is 2.5.

Coastal Water Temperatures

Place Temperature

Stations

Nearby Weather Stations

Station Location Temp. Windchill Dew Point Humidity Wind Precip. Elev Updated Type
                   

Watches & Warnings

There are currently no watches in effect.